Time;durP1;ratioP1;P1;durP2;ratioP2;P2;SDS_P1;SDS_P2;PMS_P1;PMS_P2;Temp;Humidity;BMP_temperature;BMP_pressure;BME280_temperature;BME280_humidity;BME280_pressure;Samples;Min_cycle;Max_cycle;Signal;HPM_P1;HPM_P2
2022/08/13 00:01:15;;;;;;;1.73;1.35;;;21.20;66.50;;;;;;4953717;28;20047;-49
2022/08/13 00:03:42;;;;;;;2.67;1.30;;;21.20;66.80;;;;;;4953010;28;20027;-52
2022/08/13 00:06:10;;;;;;;1.05;1.02;;;21.20;66.90;;;;;;4953521;28;20027;-54
2022/08/13 00:08:37;;;;;;;1.23;1.10;;;21.10;67.50;;;;;;4953539;28;20078;-46
2022/08/13 00:11:05;;;;;;;2.95;1.20;;;21.00;67.50;;;;;;4953370;28;20074;-47
2022/08/13 00:13:32;;;;;;;4.03;1.48;;;20.90;68.20;;;;;;4953210;28;20056;-46
2022/08/13 00:15:59;;;;;;;10.40;1.63;;;20.90;68.50;;;;;;4953534;28;20105;-47
2022/08/13 00:18:29;;;;;;;1.50;1.33;;;20.90;68.80;;;;;;4953439;28;20019;-48
2022/08/13 00:20:57;;;;;;;4.13;1.15;;;20.90;68.80;;;;;;4953342;28;20038;-50
2022/08/13 00:23:25;;;;;;;1.73;1.35;;;20.70;69.20;;;;;;4952990;28;20579;-49
2022/08/13 00:25:54;;;;;;;1.63;1.30;;;20.60;69.60;;;;;;4953536;28;20034;-49
2022/08/13 00:28:22;;;;;;;2.05;1.33;;;20.40;69.90;;;;;;4954693;28;20074;-46
2022/08/13 00:30:49;;;;;;;2.05;1.35;;;20.50;70.00;;;;;;4958373;29;20023;-49
2022/08/13 00:33:19;;;;;;;1.70;1.50;;;20.50;69.90;;;;;;4959395;28;20113;-49
2022/08/13 00:35:47;;;;;;;1.45;1.13;;;20.40;70.10;;;;;;4959963;28;20027;-47
2022/08/13 00:38:25;;;;;;;2.30;1.50;;;20.40;70.20;;;;;;4958363;29;20118;-49
2022/08/13 00:40:58;;;;;;;1.50;1.40;;;20.40;70.50;;;;;;4959636;28;20118;-45
2022/08/13 00:43:26;;;;;;;4.63;1.52;;;20.30;70.50;;;;;;4959177;28;20027;-46
2022/08/13 00:45:54;;;;;;;1.40;1.30;;;20.20;70.50;;;;;;4959484;28;20086;-48
2022/08/13 00:51:06;;;;;;;1.80;1.70;;;20.30;70.90;;;;;;4959519;28;20513;-49
2022/08/13 00:53:32;;;;;;;3.30;1.65;;;20.20;70.80;;;;;;4959240;28;20055;-46
2022/08/13 00:55:58;;;;;;;5.53;1.40;;;20.30;71.00;;;;;;4959413;28;20046;-47
2022/08/13 00:58:26;;;;;;;2.92;1.38;;;20.20;71.00;;;;;;4959384;28;20059;-47
2022/08/13 01:00:56;;;;;;;1.50;1.40;;;20.20;70.90;;;;;;4959296;28;20031;-46
2022/08/13 01:03:23;;;;;;;2.50;1.30;;;20.30;70.90;;;;;;4958955;28;20527;-50
2022/08/13 01:05:50;;;;;;;2.08;1.85;;;20.20;71.20;;;;;;4959518;28;20031;-46
2022/08/13 01:08:18;;;;;;;3.83;1.70;;;20.20;71.00;;;;;;4959368;28;20027;-48
2022/08/13 01:10:48;;;;;;;1.80;1.70;;;20.30;71.00;;;;;;4959438;28;20020;-53
2022/08/13 01:13:16;;;;;;;5.45;1.50;;;20.30;71.10;;;;;;4958989;28;20031;-46
2022/08/13 01:15:44;;;;;;;3.38;1.40;;;20.20;71.20;;;;;;4959612;28;20083;-51
2022/08/13 01:18:14;;;;;;;1.77;1.30;;;20.10;71.40;;;;;;4959384;28;20031;-49
2022/08/13 01:21:08;;;;;;;1.95;1.52;;;20.00;71.70;;;;;;4959185;28;20023;-51
2022/08/13 01:23:34;;;;;;;1.48;1.38;;;20.10;72.00;;;;;;4958337;28;20046;-48
2022/08/13 01:26:01;;;;;;;2.85;1.60;;;20.00;72.00;;;;;;4959199;28;20036;-51
2022/08/13 01:28:28;;;;;;;3.78;1.70;;;20.10;72.00;;;;;;4959172;28;20432;-46
2022/08/13 01:30:57;;;;;;;4.07;1.40;;;20.10;72.00;;;;;;4959044;28;20397;-47
2022/08/13 01:33:23;;;;;;;4.32;1.50;;;20.10;71.80;;;;;;4958689;28;20031;-46
2022/08/13 01:35:50;;;;;;;1.50;1.40;;;20.10;71.70;;;;;;4959255;28;20063;-49
2022/08/13 01:38:16;;;;;;;1.95;1.67;;;20.10;71.70;;;;;;4957877;29;20035;-46
2022/08/13 01:40:43;;;;;;;1.88;1.20;;;20.20;71.70;;;;;;4956049;28;20560;-50
2022/08/13 01:43:09;;;;;;;2.30;1.30;;;20.20;71.80;;;;;;4955817;28;20027;-47
2022/08/13 01:45:34;;;;;;;3.30;1.77;;;20.30;71.70;;;;;;4956000;29;20038;-50
2022/08/13 01:50:44;;;;;;;6.13;2.08;;;20.20;71.60;;;;;;4955960;29;20050;-47
2022/08/13 01:53:12;;;;;;;2.40;2.20;;;20.30;71.80;;;;;;4955662;28;20023;-49
2022/08/13 01:55:39;;;;;;;1.90;1.80;;;20.30;71.70;;;;;;4954580;29;20035;-50
2022/08/13 01:58:12;;;;;;;5.68;2.08;;;20.20;71.80;;;;;;4955889;28;20027;-46
2022/08/13 02:00:40;;;;;;;1.98;1.67;;;20.20;72.10;;;;;;4955792;28;20028;-46
2022/08/13 02:03:09;;;;;;;3.72;1.70;;;20.20;72.30;;;;;;4955115;28;20532;-50
2022/08/13 02:05:36;;;;;;;1.60;1.50;;;20.10;72.30;;;;;;4955673;28;20027;-47
2022/08/13 02:08:01;;;;;;;1.55;1.50;;;20.10;72.50;;;;;;4955629;28;20020;-50
2022/08/13 02:10:28;;;;;;;1.75;1.45;;;20.00;72.80;;;;;;4955439;28;20027;-48
2022/08/13 02:12:53;;;;;;;5.50;1.50;;;20.00;73.00;;;;;;4955209;28;20448;-49
2022/08/13 02:15:19;;;;;;;2.40;1.70;;;20.00;73.00;;;;;;4955426;29;20031;-48
2022/08/13 02:17:45;;;;;;;1.83;1.45;;;19.90;73.10;;;;;;4955528;29;20031;-52
2022/08/13 02:20:17;;;;;;;3.60;1.90;;;19.90;73.30;;;;;;4955476;28;20159;-50
2022/08/13 02:22:45;;;;;;;3.60;1.70;;;19.90;73.30;;;;;;4955353;28;20047;-48
2022/08/13 02:25:12;;;;;;;4.18;1.40;;;19.90;73.40;;;;;;4955345;28;20027;-48
2022/08/13 02:27:38;;;;;;;1.50;1.40;;;19.90;73.40;;;;;;4955331;28;20493;-47
2022/08/13 02:30:07;;;;;;;2.58;1.40;;;19.80;73.50;;;;;;4955385;28;20408;-46
2022/08/13 02:32:35;;;;;;;7.60;1.73;;;19.80;73.70;;;;;;4954935;28;20031;-46
2022/08/13 02:35:01;;;;;;;3.60;1.42;;;19.80;73.80;;;;;;4955207;28;20034;-48
2022/08/13 02:37:26;;;;;;;3.33;2.17;;;19.80;73.90;;;;;;4953767;29;20401;-47
2022/08/13 02:39:52;;;;;;;4.80;1.88;;;19.80;73.80;;;;;;4954929;29;20042;-50
2022/08/13 02:42:20;;;;;;;3.92;1.88;;;19.80;73.70;;;;;;4954687;29;20452;-49
2022/08/13 02:44:48;;;;;;;1.67;1.48;;;19.80;73.60;;;;;;4955005;28;20070;-46
2022/08/13 02:47:15;;;;;;;4.55;1.55;;;19.90;73.60;;;;;;4954996;28;20107;-48
2022/08/13 02:49:41;;;;;;;3.05;1.67;;;19.80;73.50;;;;;;4954783;28;20501;-48
2022/08/13 02:52:10;;;;;;;1.63;1.52;;;19.90;73.80;;;;;;4954146;28;20038;-47
2022/08/13 02:54:42;;;;;;;10.88;1.70;;;19.80;73.60;;;;;;4955029;28;20524;-49
2022/08/13 02:57:09;;;;;;;2.30;1.70;;;19.80;73.80;;;;;;4954854;28;20123;-47
2022/08/13 02:59:34;;;;;;;3.47;1.60;;;19.80;73.80;;;;;;4954709;28;20062;-51
2022/08/13 03:02:01;;;;;;;4.03;1.50;;;19.70;73.90;;;;;;4953855;29;20023;-49
2022/08/13 03:04:27;;;;;;;1.98;1.80;;;19.70;73.80;;;;;;4954887;28;20445;-49
2022/08/13 03:06:52;;;;;;;1.60;1.50;;;19.70;73.90;;;;;;4954726;29;20050;-46
2022/08/13 03:09:20;;;;;;;4.63;1.70;;;19.70;74.10;;;;;;4954745;28;20016;-46
2022/08/13 03:11:47;;;;;;;2.20;1.80;;;19.70;74.10;;;;;;4954320;28;20026;-46
2022/08/13 03:14:13;;;;;;;3.42;1.58;;;19.70;74.10;;;;;;4954295;28;20428;-47
2022/08/13 03:16:41;;;;;;;1.77;1.60;;;19.60;74.40;;;;;;4954298;29;20027;-47
2022/08/13 03:19:07;;;;;;;1.65;1.52;;;19.60;74.60;;;;;;4953057;29;20517;-47
2022/08/13 03:21:36;;;;;;;1.45;1.35;;;19.50;74.70;;;;;;4954160;29;20038;-47
2022/08/13 03:24:04;;;;;;;2.55;1.70;;;19.50;74.90;;;;;;4952619;29;20512;-47
2022/08/13 03:26:31;;;;;;;4.40;1.50;;;19.50;74.80;;;;;;4954373;28;20047;-49
2022/08/13 03:29:01;;;;;;;5.75;1.52;;;19.50;75.00;;;;;;4953425;29;20027;-47
2022/08/13 03:31:28;;;;;;;1.45;1.33;;;19.50;75.10;;;;;;4954035;28;20032;-49
2022/08/13 03:33:54;;;;;;;1.70;1.60;;;19.50;75.20;;;;;;4953891;28;20027;-52
2022/08/13 03:36:21;;;;;;;1.67;1.58;;;19.40;75.40;;;;;;4954072;28;20055;-49
2022/08/13 03:38:47;;;;;;;3.20;1.90;;;19.40;75.50;;;;;;4954112;28;20142;-49
2022/08/13 03:41:14;;;;;;;2.22;1.83;;;19.30;75.80;;;;;;4954002;28;20032;-50
2022/08/13 03:43:47;;;;;;;4.80;2.00;;;19.20;76.10;;;;;;4953524;28;20020;-47
2022/08/13 03:46:16;;;;;;;4.32;1.90;;;19.20;76.40;;;;;;4953972;28;20055;-52
2022/08/13 03:48:43;;;;;;;4.63;1.55;;;19.20;76.40;;;;;;4954096;28;20114;-47
2022/08/13 03:51:08;;;;;;;1.92;1.83;;;19.10;76.50;;;;;;4953855;28;20035;-49
2022/08/13 03:53:35;;;;;;;4.25;1.50;;;19.20;76.50;;;;;;4953613;29;20027;-46
2022/08/13 03:56:01;;;;;;;2.35;1.50;;;19.10;76.60;;;;;;4953978;28;20042;-48
2022/08/13 03:58:28;;;;;;;2.20;1.60;;;19.10;76.70;;;;;;4954017;28;20062;-53
2022/08/13 04:00:54;;;;;;;2.55;1.65;;;19.10;76.80;;;;;;4953710;28;20061;-50
2022/08/13 04:03:28;;;;;;;1.88;1.77;;;19.10;76.70;;;;;;4952433;28;20023;-50
2022/08/13 04:06:04;;;;;;;5.47;2.00;;;19.00;77.00;;;;;;4953595;28;20106;-47
2022/08/13 04:08:34;;;;;;;3.33;1.67;;;19.00;77.30;;;;;;4953638;28;20374;-47
2022/08/13 04:11:01;;;;;;;2.33;1.70;;;19.00;77.30;;;;;;4953575;28;20082;-47
2022/08/13 04:13:28;;;;;;;2.30;2.13;;;19.00;77.30;;;;;;4953288;28;20023;-48
2022/08/13 04:15:53;;;;;;;4.28;1.65;;;18.90;77.40;;;;;;4953507;28;20024;-51
2022/08/13 04:18:19;;;;;;;3.83;1.60;;;18.90;77.40;;;;;;4953514;29;20378;-46
2022/08/13 04:20:54;;;;;;;8.82;1.83;;;18.90;77.60;;;;;;4953375;29;20059;-49
2022/08/13 04:23:20;;;;;;;2.25;1.70;;;18.90;77.60;;;;;;4953145;28;20023;-53
2022/08/13 04:25:47;;;;;;;3.20;1.52;;;18.90;77.60;;;;;;4953461;29;20038;-49
2022/08/13 04:28:15;;;;;;;2.30;1.50;;;18.90;77.60;;;;;;4953421;28;20027;-49
2022/08/13 04:30:41;;;;;;;4.63;1.60;;;19.00;77.60;;;;;;4953335;28;20150;-49
2022/08/13 04:33:11;;;;;;;6.18;1.85;;;18.90;77.80;;;;;;4951897;29;20039;-46
2022/08/13 04:35:38;;;;;;;1.98;1.45;;;18.90;77.80;;;;;;4953560;28;20035;-49
2022/08/13 04:38:08;;;;;;;2.28;1.60;;;18.90;77.80;;;;;;4952068;29;20090;-47
2022/08/13 04:40:35;;;;;;;9.27;1.88;;;18.90;78.00;;;;;;4953205;28;20031;-48
2022/08/13 04:43:05;;;;;;;4.50;1.67;;;18.90;78.20;;;;;;4952949;28;20066;-50
2022/08/13 04:45:32;;;;;;;1.75;1.58;;;18.80;78.20;;;;;;4953304;28;20096;-46
2022/08/13 04:47:59;;;;;;;3.47;1.65;;;18.80;78.60;;;;;;4953112;28;20031;-50
2022/08/13 04:50:27;;;;;;;2.03;1.50;;;18.80;78.50;;;;;;4953118;28;20028;-48
2022/08/13 04:52:52;;;;;;;4.65;1.88;;;18.70;78.50;;;;;;4952819;28;20110;-50
2022/08/13 04:55:18;;;;;;;2.58;1.92;;;18.80;78.50;;;;;;4953244;29;20114;-47
2022/08/13 04:57:44;;;;;;;3.92;2.03;;;18.90;78.50;;;;;;4953128;29;20548;-50
2022/08/13 05:00:11;;;;;;;5.68;1.85;;;18.90;78.30;;;;;;4952976;29;20437;-47
2022/08/13 05:02:41;;;;;;;2.92;2.25;;;19.10;78.20;;;;;;4952334;28;20501;-49
2022/08/13 05:05:10;;;;;;;3.03;2.30;;;19.20;77.80;;;;;;4953196;28;20031;-46
2022/08/13 05:07:35;;;;;;;5.35;2.35;;;19.50;77.00;;;;;;4951705;29;20030;-47
2022/08/13 05:10:01;;;;;;;6.90;1.60;;;20.00;75.70;;;;;;4952902;29;20477;-46
2022/08/13 05:12:27;;;;;;;2.08;1.65;;;20.60;74.10;;;;;;4952580;29;20063;-45
2022/08/13 05:14:52;;;;;;;1.70;1.58;;;21.30;72.70;;;;;;4954238;28;20097;-47
2022/08/13 05:17:18;;;;;;;7.63;1.77;;;21.80;71.40;;;;;;4956756;29;20031;-46
2022/08/13 05:19:47;;;;;;;23.63;2.50;;;22.20;70.40;;;;;;4957447;29;20106;-47
2022/08/13 05:22:13;;;;;;;3.30;1.73;;;22.80;68.90;;;;;;4957384;28;20030;-48
2022/08/13 05:24:38;;;;;;;4.53;1.73;;;23.10;67.80;;;;;;4956460;29;20110;-47
2022/08/13 05:27:04;;;;;;;4.60;1.70;;;23.40;67.30;;;;;;4956377;29;20039;-46
2022/08/13 05:29:29;;;;;;;1.98;1.73;;;23.60;66.90;;;;;;4956446;29;20086;-49
2022/08/13 05:31:56;;;;;;;2.03;1.58;;;23.80;66.10;;;;;;4956041;29;20027;-53
2022/08/13 05:34:23;;;;;;;3.53;1.73;;;24.20;65.70;;;;;;4956409;28;20033;-47
2022/08/13 05:36:48;;;;;;;5.40;1.85;;;24.50;65.10;;;;;;4956182;28;20027;-52
2022/08/13 05:39:14;;;;;;;3.53;1.40;;;24.90;64.10;;;;;;4956104;29;20034;-52
2022/08/13 05:41:41;;;;;;;2.70;1.60;;;25.20;63.70;;;;;;4957116;29;20035;-51
2022/08/13 05:44:09;;;;;;;8.48;1.20;;;25.60;63.20;;;;;;4955897;28;20119;-47
2022/08/13 05:46:34;;;;;;;3.58;1.42;;;25.90;62.50;;;;;;4956209;28;20373;-48
2022/08/13 05:49:00;;;;;;;4.00;1.48;;;25.90;62.00;;;;;;4955979;29;20039;-46
2022/08/13 05:51:31;;;;;;;1.50;1.40;;;25.70;62.50;;;;;;4955826;29;20464;-49
2022/08/13 05:54:18;;;;;;;2.95;1.23;;;25.70;62.80;;;;;;4956051;28;20071;-47
2022/08/13 05:56:43;;;;;;;4.47;1.67;;;25.80;62.70;;;;;;4956281;28;20078;-47
2022/08/13 06:03:24;;;;;;;5.97;1.60;;;25.80;62.60;;;;;;4955877;29;20027;-47
2022/08/13 06:04:41;;;;;;;5.55;1.83;;;26.00;62.40;;;;;;4955666;29;20444;-48
2022/08/13 06:07:17;;;;;;;1.77;1.20;;;26.40;62.00;;;;;;4955668;29;20035;-50
2022/08/13 06:09:43;;;;;;;2.13;1.40;;;26.80;61.40;;;;;;4955659;28;20030;-49
2022/08/13 06:12:08;;;;;;;3.28;1.25;;;26.80;61.10;;;;;;4955274;29;20405;-47
2022/08/13 06:14:34;;;;;;;5.00;1.15;;;26.80;60.60;;;;;;4955474;29;20039;-49
2022/08/13 06:17:02;;;;;;;9.25;1.10;;;26.90;60.70;;;;;;4954259;29;20091;-49
2022/08/13 06:19:32;;;;;;;6.22;1.30;;;27.20;60.20;;;;;;4955428;28;20023;-48
2022/08/13 06:22:03;;;;;;;2.60;1.52;;;27.60;59.80;;;;;;4955164;28;20027;-46
2022/08/13 06:24:32;;;;;;;4.30;1.38;;;28.20;58.80;;;;;;4955422;28;20046;-50
2022/08/13 06:27:00;;;;;;;2.47;1.25;;;28.50;58.50;;;;;;4954666;28;20023;-48
2022/08/13 06:29:28;;;;;;;1.85;1.33;;;28.40;58.00;;;;;;4955309;28;20038;-50
2022/08/13 06:31:55;;;;;;;3.08;0.88;;;28.10;58.60;;;;;;4954983;28;20043;-47
2022/08/13 06:34:22;;;;;;;4.22;1.50;;;27.60;59.20;;;;;;4954067;29;20095;-48
2022/08/13 06:36:48;;;;;;;3.63;1.45;;;27.60;59.70;;;;;;4955225;28;20028;-50
2022/08/13 06:39:15;;;;;;;4.47;1.80;;;27.90;59.20;;;;;;4954822;29;20472;-46
2022/08/13 06:41:42;;;;;;;4.30;1.40;;;28.10;59.30;;;;;;4955262;28;20075;-47
2022/08/13 06:44:08;;;;;;;4.45;1.45;;;28.10;58.90;;;;;;4954813;28;20024;-50
2022/08/13 06:46:34;;;;;;;3.28;0.93;;;28.60;58.70;;;;;;4955103;28;20023;-49
2022/08/13 06:49:01;;;;;;;1.50;1.40;;;29.00;57.50;;;;;;4955027;29;20031;-53
2022/08/13 06:51:27;;;;;;;1.02;1.02;;;29.40;57.00;;;;;;4954702;28;20074;-52
2022/08/13 06:53:54;;;;;;;1.70;1.10;;;29.50;56.50;;;;;;4954389;29;20058;-46
2022/08/13 06:56:22;;;;;;;4.35;1.42;;;29.70;57.00;;;;;;4954713;28;20062;-48
2022/08/13 06:58:50;;;;;;;1.73;1.02;;;30.00;55.80;;;;;;4954669;28;20035;-49
2022/08/13 07:01:17;;;;;;;2.03;1.25;;;30.50;55.10;;;;;;4954674;28;20035;-48
2022/08/13 07:03:44;;;;;;;4.53;1.20;;;30.70;55.10;;;;;;4948352;29;20043;-47
2022/08/13 07:06:18;;;;;;;3.38;1.25;;;30.90;55.40;;;;;;4954288;28;20030;-53
2022/08/13 07:08:44;;;;;;;3.30;0.80;;;30.90;54.70;;;;;;4953231;28;20031;-51
2022/08/13 07:11:22;;;;;;;2.85;0.90;;;30.40;55.10;;;;;;4954483;28;20027;-48
2022/08/13 07:13:51;;;;;;;3.13;1.10;;;30.40;55.50;;;;;;4953644;28;20110;-48
2022/08/13 07:16:19;;;;;;;3.95;1.45;;;30.50;55.50;;;;;;4953878;29;20106;-48
2022/08/13 07:18:46;;;;;;;2.38;1.00;;;30.50;55.10;;;;;;4954425;28;20564;-50
2022/08/13 07:21:14;;;;;;;2.53;1.33;;;30.30;55.50;;;;;;4954125;28;20187;-50
2022/08/13 07:23:41;;;;;;;1.13;1.00;;;30.50;56.00;;;;;;4949963;29;20453;-46
2022/08/13 07:26:09;;;;;;;1.05;0.98;;;31.00;55.10;;;;;;4953442;28;20035;-47
2022/08/13 07:28:35;;;;;;;4.40;1.20;;;31.40;54.60;;;;;;4954579;28;20047;-49
2022/08/13 07:31:05;;;;;;;3.47;1.05;;;31.30;54.20;;;;;;4954326;28;20093;-49
2022/08/13 07:33:34;;;;;;;4.38;1.40;;;31.20;54.40;;;;;;4953981;28;20086;-48
2022/08/13 07:36:08;;;;;;;1.30;0.90;;;31.60;54.70;;;;;;4953465;28;20463;-52
2022/08/13 07:38:34;;;;;;;3.40;1.10;;;32.30;53.40;;;;;;4953289;28;20500;-49
2022/08/13 07:41:02;;;;;;;1.92;1.08;;;32.40;52.90;;;;;;4953944;28;20023;-54
2022/08/13 07:43:29;;;;;;;2.67;1.10;;;32.60;52.90;;;;;;4953861;28;20116;-49
2022/08/13 07:46:07;;;;;;;1.85;1.30;;;32.70;52.50;;;;;;4953841;28;20482;-48
2022/08/13 07:48:34;;;;;;;3.85;1.33;;;33.10;52.50;;;;;;4954019;28;20481;-52
2022/08/13 07:51:01;;;;;;;5.03;1.40;;;33.30;52.00;;;;;;4953749;28;20551;-50
2022/08/13 07:53:28;;;;;;;5.97;1.02;;;33.30;51.80;;;;;;4952329;29;20039;-51
2022/08/13 07:55:54;;;;;;;1.48;1.35;;;33.10;51.70;;;;;;4953870;28;20434;-49
2022/08/13 07:58:19;;;;;;;1.15;0.90;;;32.80;51.90;;;;;;4953761;28;20023;-47
2022/08/13 08:00:45;;;;;;;3.53;1.02;;;32.70;52.10;;;;;;4954069;28;20031;-51
2022/08/13 08:03:12;;;;;;;0.90;0.90;;;32.30;52.40;;;;;;4953351;29;20159;-48
2022/08/13 08:05:41;;;;;;;3.00;0.93;;;32.30;52.80;;;;;;4953839;28;20030;-51
2022/08/13 08:08:08;;;;;;;8.63;0.90;;;32.50;52.60;;;;;;4953605;28;20020;-49
2022/08/13 08:10:38;;;;;;;5.05;1.00;;;33.20;51.90;;;;;;4953535;28;20082;-48
2022/08/13 08:13:03;;;;;;;3.53;0.77;;;33.20;51.20;;;;;;4953401;28;20046;-52
2022/08/13 08:15:29;;;;;;;1.13;0.80;;;33.50;51.50;;;;;;4953609;28;20031;-51
2022/08/13 08:17:55;;;;;;;4.55;1.00;;;34.10;51.10;;;;;;4953543;29;20545;-47
2022/08/13 08:20:23;;;;;;;3.35;1.10;;;34.30;50.40;;;;;;4953586;28;20118;-50
2022/08/13 08:22:50;;;;;;;3.70;0.70;;;34.10;50.50;;;;;;4953244;28;20034;-48
2022/08/13 08:25:21;;;;;;;9.30;1.05;;;33.80;50.50;;;;;;4953421;28;20027;-49
2022/08/13 08:27:47;;;;;;;3.03;0.70;;;33.30;50.70;;;;;;4953313;28;20465;-46
2022/08/13 08:30:20;;;;;;;3.25;1.30;;;33.30;51.20;;;;;;4951982;28;20507;-51
2022/08/13 08:32:52;;;;;;;2.55;1.17;;;33.60;50.80;;;;;;4952874;28;20027;-50
2022/08/13 08:35:18;;;;;;;2.75;1.05;;;34.10;50.80;;;;;;4953458;28;20024;-49
2022/08/13 08:43:14;;;;;;;3.28;0.90;;;34.40;50.50;;;;;;4953054;29;20046;-52
2022/08/13 08:45:42;;;;;;;6.47;1.33;;;34.20;50.60;;;;;;4951889;29;20404;-49
2022/08/13 08:48:09;;;;;;;1.73;1.00;;;34.00;50.80;;;;;;4952135;28;20038;-50
2022/08/13 08:50:36;;;;;;;0.98;0.95;;;34.20;50.40;;;;;;4954406;28;20028;-51
2022/08/13 08:53:20;;;;;;;0.90;0.90;;;34.30;50.20;;;;;;4957215;29;20031;-48
2022/08/13 08:55:47;;;;;;;3.05;1.15;;;34.00;50.60;;;;;;4939913;28;20027;-50
2022/08/13 08:58:12;;;;;;;10.85;1.17;;;33.50;51.10;;;;;;4957482;28;20078;-50
2022/08/13 09:00:40;;;;;;;2.58;1.17;;;33.00;52.10;;;;;;4956844;28;20027;-53
2022/08/13 09:03:08;;;;;;;2.13;1.33;;;32.60;52.60;;;;;;4945848;28;20055;-48
2022/08/13 09:05:35;;;;;;;2.25;1.15;;;32.30;52.70;;;;;;4955646;29;20031;-49
2022/08/13 09:08:03;;;;;;;1.30;1.20;;;32.30;53.20;;;;;;4957206;28;20031;-50
2022/08/13 09:10:33;;;;;;;3.05;1.27;;;32.40;53.00;;;;;;4965116;28;20035;-48
2022/08/13 09:13:02;;;;;;;4.80;1.17;;;32.20;52.90;;;;;;4955950;28;20118;-50
2022/08/13 09:15:29;;;;;;;2.88;1.60;;;31.40;53.30;;;;;;4956223;28;20504;-49
2022/08/13 09:17:56;;;;;;;2.95;1.15;;;31.20;54.40;;;;;;4950291;29;20031;-49
2022/08/13 09:20:24;;;;;;;6.63;1.00;;;31.00;54.50;;;;;;4955041;28;20039;-48
2022/08/13 09:23:12;;;;;;;7.90;1.40;;;30.90;54.50;;;;;;4953279;29;20023;-49
2022/08/13 09:25:41;;;;;;;2.50;0.80;;;31.30;54.60;;;;;;4957157;28;20385;-49
2022/08/13 09:28:08;;;;;;;4.60;1.85;;;31.60;53.90;;;;;;4956938;28;20036;-50
2022/08/13 09:30:34;;;;;;;3.97;1.23;;;31.40;53.70;;;;;;4956844;28;20058;-52
2022/08/13 09:33:02;;;;;;;2.15;1.10;;;31.20;54.10;;;;;;4969604;28;20038;-47
2022/08/13 09:35:29;;;;;;;4.22;1.08;;;31.00;54.20;;;;;;4976128;28;20492;-49
2022/08/13 09:37:57;;;;;;;3.80;1.00;;;31.20;54.40;;;;;;4975866;28;20031;-50
2022/08/13 09:40:26;;;;;;;1.00;0.90;;;31.20;53.60;;;;;;4960091;28;20481;-48
2022/08/13 09:43:07;;;;;;;3.70;1.00;;;31.30;53.80;;;;;;4956118;28;20580;-49
2022/08/13 09:45:33;;;;;;;1.10;1.00;;;31.10;53.90;;;;;;4956452;28;20083;-48
2022/08/13 09:47:59;;;;;;;3.28;1.05;;;31.30;54.50;;;;;;4956452;28;20043;-50
2022/08/13 09:50:26;;;;;;;4.80;1.00;;;31.20;54.00;;;;;;4956266;28;20417;-49
2022/08/13 09:52:56;;;;;;;3.22;1.05;;;31.00;54.00;;;;;;4955650;28;20031;-50
2022/08/13 09:55:22;;;;;;;1.10;1.02;;;30.90;54.20;;;;;;4955819;28;20023;-48
2022/08/13 09:57:55;;;;;;;2.40;1.05;;;30.70;54.40;;;;;;4955851;28;20027;-49
2022/08/13 10:00:22;;;;;;;2.95;0.88;;;30.50;54.20;;;;;;4955648;28;20106;-50
2022/08/13 10:02:57;;;;;;;1.23;1.13;;;30.30;54.00;;;;;;4954725;28;20023;-47
2022/08/13 10:05:25;;;;;;;1.60;0.90;;;30.20;54.20;;;;;;4955912;28;20027;-48
2022/08/13 10:07:51;;;;;;;6.82;0.98;;;30.40;54.20;;;;;;4955436;28;20031;-51
2022/08/13 10:10:17;;;;;;;3.08;1.25;;;30.60;54.00;;;;;;4955188;28;20031;-49
2022/08/13 10:12:43;;;;;;;32.00;23.30;;;30.40;54.40;;;;;;4953898;29;20032;-51
2022/08/13 10:15:11;;;;;;;12.18;6.32;;;30.30;54.30;;;;;;4955426;28;20034;-49
2022/08/13 10:17:52;;;;;;;1.60;1.10;;;30.00;54.60;;;;;;4956221;28;20038;-48
2022/08/13 10:20:24;;;;;;;5.30;1.42;;;30.00;54.60;;;;;;4954235;28;20123;-49
2022/08/13 10:22:51;;;;;;;2.42;0.95;;;29.90;55.40;;;;;;4936199;29;20027;-47
2022/08/13 10:25:17;;;;;;;6.30;1.10;;;29.90;54.00;;;;;;4953284;29;20039;-48
2022/08/13 10:27:44;;;;;;;4.20;1.35;;;29.90;54.50;;;;;;4953173;29;20027;-46
2022/08/13 10:30:11;;;;;;;1.10;1.10;;;30.10;54.20;;;;;;4956663;28;20031;-53
2022/08/13 10:32:37;;;;;;;2.28;1.05;;;30.00;54.00;;;;;;4955049;28;20028;-52
2022/08/13 10:35:03;;;;;;;1.45;0.85;;;29.70;54.40;;;;;;4956488;28;20108;-51
2022/08/13 10:37:29;;;;;;;1.27;1.17;;;29.80;54.90;;;;;;4956018;28;20081;-50
2022/08/13 10:39:59;;;;;;;3.90;1.10;;;29.80;54.30;;;;;;4955490;28;20489;-53
2022/08/13 10:42:25;;;;;;;1.90;1.20;;;30.00;53.40;;;;;;4955422;28;20027;-53
2022/08/13 10:44:52;;;;;;;1.35;1.10;;;30.00;53.80;;;;;;4955549;29;20016;-49
2022/08/13 10:47:24;;;;;;;1.95;1.15;;;30.10;54.40;;;;;;4955428;28;20047;-51
2022/08/13 10:49:51;;;;;;;3.25;1.95;;;30.10;54.90;;;;;;4955271;28;20027;-50
2022/08/13 10:52:20;;;;;;;2.10;1.23;;;30.00;54.10;;;;;;4954711;28;20054;-48
2022/08/13 10:54:47;;;;;;;4.90;1.10;;;29.90;54.90;;;;;;4955266;28;20027;-51
2022/08/13 10:57:14;;;;;;;6.15;1.20;;;29.60;54.30;;;;;;4955495;28;20031;-49
2022/08/13 10:59:40;;;;;;;4.07;1.52;;;29.50;54.60;;;;;;4955209;28;20110;-50
2022/08/13 11:02:07;;;;;;;3.72;1.75;;;29.50;54.30;;;;;;4954106;29;20119;-53
2022/08/13 11:04:36;;;;;;;11.77;8.10;;;29.50;54.50;;;;;;4955655;28;20114;-51
2022/08/13 11:07:03;;;;;;;2.15;1.30;;;29.50;55.10;;;;;;4955581;28;20031;-49
2022/08/13 11:09:29;;;;;;;1.33;1.10;;;29.50;55.10;;;;;;4955605;28;20027;-49
2022/08/13 11:11:57;;;;;;;4.45;1.17;;;29.50;55.20;;;;;;4953678;28;20110;-51
2022/08/13 11:14:23;;;;;;;4.25;1.38;;;29.60;54.80;;;;;;4953966;28;20054;-49
2022/08/13 11:16:58;;;;;;;5.30;1.38;;;29.40;54.90;;;;;;4955243;28;20070;-57
2022/08/13 11:19:28;;;;;;;1.15;1.10;;;29.40;54.50;;;;;;4954085;28;20031;-48
2022/08/13 11:21:53;;;;;;;3.42;1.10;;;29.20;54.30;;;;;;4954025;28;20019;-49
2022/08/13 11:24:19;;;;;;;10.35;1.45;;;29.20;54.40;;;;;;4953934;28;20086;-53
2022/08/13 11:26:47;;;;;;;1.15;1.10;;;29.10;55.70;;;;;;4953073;29;20070;-48
2022/08/13 11:29:13;;;;;;;1.33;1.20;;;29.10;55.00;;;;;;4953638;28;20031;-44
2022/08/13 11:31:39;;;;;;;2.25;1.10;;;29.20;55.50;;;;;;4953206;28;20520;-48
2022/08/13 11:34:04;;;;;;;2.03;1.23;;;29.30;55.10;;;;;;4953638;28;20035;-48
2022/08/13 11:36:30;;;;;;;3.80;1.10;;;29.40;54.50;;;;;;4952724;29;20030;-48
2022/08/13 11:38:56;;;;;;;3.40;1.50;;;29.50;54.80;;;;;;4952058;29;20022;-50
2022/08/13 11:41:21;;;;;;;1.58;1.00;;;29.60;54.70;;;;;;4978624;23;20118;-47
2022/08/13 11:43:49;;;;;;;4.40;1.15;;;29.70;54.30;;;;;;4971357;28;20030;-43
2022/08/13 11:46:15;;;;;;;0.70;0.70;;;29.80;54.40;;;;;;4968725;28;20530;-49
2022/08/13 11:48:42;;;;;;;0.85;0.85;;;29.90;54.10;;;;;;4964534;28;20035;-49
2022/08/13 11:51:08;;;;;;;4.25;1.48;;;30.00;53.00;;;;;;4955011;28;20042;-47
2022/08/13 11:53:33;;;;;;;0.88;0.88;;;30.00;53.10;;;;;;4941393;28;20478;-50
2022/08/13 11:55:59;;;;;;;1.45;1.33;;;30.00;53.30;;;;;;4934978;29;20047;-48
2022/08/13 11:58:25;;;;;;;2.35;1.30;;;30.00;53.40;;;;;;4951897;29;20504;-55
2022/08/13 12:00:53;;;;;;;1.58;1.10;;;29.90;53.10;;;;;;4953839;28;20033;-51
2022/08/13 12:03:18;;;;;;;4.03;1.00;;;29.90;53.40;;;;;;4953563;28;20019;-48
2022/08/13 12:05:44;;;;;;;4.30;1.05;;;29.90;53.30;;;;;;4953938;28;20046;-53
2022/08/13 12:08:15;;;;;;;1.75;1.00;;;29.90;53.40;;;;;;4953948;28;20027;-53
2022/08/13 12:10:40;;;;;;;14.20;8.88;;;29.90;53.50;;;;;;4934552;29;20513;-47
2022/08/13 12:13:06;;;;;;;2.08;1.88;;;29.90;53.10;;;;;;4934006;29;20035;-51
2022/08/13 12:15:31;;;;;;;4.35;1.33;;;29.80;52.60;;;;;;4934399;29;20494;-54
2022/08/13 12:17:57;;;;;;;2.15;1.00;;;29.70;53.30;;;;;;4936408;29;20034;-53
2022/08/13 12:20:24;;;;;;;2.80;1.30;;;29.80;53.20;;;;;;4934389;29;20063;-49
2022/08/13 12:22:54;;;;;;;1.63;1.15;;;29.80;53.50;;;;;;4934022;29;20091;-50
2022/08/13 12:25:22;;;;;;;4.50;1.05;;;29.70;53.90;;;;;;4933735;29;20099;-56
2022/08/13 12:27:48;;;;;;;4.35;1.10;;;29.80;54.10;;;;;;4941558;29;20042;-48
2022/08/13 12:30:14;;;;;;;5.95;1.25;;;29.80;54.20;;;;;;4952135;29;20028;-49
2022/08/13 12:32:39;;;;;;;3.53;0.95;;;29.80;54.30;;;;;;4938448;28;20032;-45
2022/08/13 12:35:05;;;;;;;2.05;1.20;;;29.70;54.30;;;;;;4934584;29;20039;-48
2022/08/13 12:37:31;;;;;;;3.13;1.30;;;29.80;54.00;;;;;;4934793;29;20104;-49
2022/08/13 12:39:58;;;;;;;3.30;1.20;;;29.90;54.10;;;;;;4950409;29;20031;-46
2022/08/13 12:42:25;;;;;;;1.77;1.05;;;29.80;53.70;;;;;;4951571;28;20031;-48
2022/08/13 12:44:51;;;;;;;3.88;1.17;;;29.70;54.40;;;;;;4940060;28;20035;-47
2022/08/13 12:47:16;;;;;;;3.80;1.50;;;29.80;54.10;;;;;;4934069;29;20449;-48
2022/08/13 12:49:42;;;;;;;2.50;1.20;;;29.80;53.90;;;;;;4934068;29;20024;-46
2022/08/13 12:52:08;;;;;;;2.90;1.30;;;29.90;54.00;;;;;;4933665;29;20032;-55
2022/08/13 12:54:33;;;;;;;2.72;2.53;;;29.90;53.80;;;;;;4933992;29;20509;-50
2022/08/13 12:56:59;;;;;;;4.43;3.17;;;29.90;53.60;;;;;;4933920;29;20019;-53
2022/08/13 12:59:24;;;;;;;5.65;3.38;;;29.80;53.20;;;;;;4946424;29;20031;-48
2022/08/13 13:01:52;;;;;;;5.63;3.35;;;29.80;53.40;;;;;;4952886;28;20027;-53